createdAt,value
2022-09-04T00:00:04.937Z,17.62
2022-09-04T00:00:14.977Z,17.60
2022-09-04T00:00:25.076Z,17.62
2022-09-04T00:00:35.117Z,17.62
2022-09-04T00:00:45.167Z,17.62
2022-09-04T00:00:55.227Z,17.60
2022-09-04T00:01:05.284Z,17.62
2022-09-04T00:01:15.329Z,17.62
2022-09-04T00:01:25.371Z,17.62
2022-09-04T00:01:35.435Z,17.63
2022-09-04T00:01:45.639Z,17.62
2022-09-04T00:01:55.666Z,17.65
2022-09-04T00:02:05.757Z,17.65
2022-09-04T00:02:15.810Z,17.63
2022-09-04T00:02:25.856Z,17.62
2022-09-04T00:02:35.956Z,17.62
2022-09-04T00:02:45.987Z,17.62
2022-09-04T00:02:56.038Z,17.62
2022-09-04T00:03:06.094Z,17.63
2022-09-04T00:03:16.137Z,17.62
2022-09-04T00:03:26.187Z,17.62
2022-09-04T00:03:36.294Z,17.62
2022-09-04T00:03:46.399Z,17.63
2022-09-04T00:03:56.531Z,17.62
2022-09-04T00:04:06.602Z,17.62
2022-09-04T00:04:16.654Z,17.62
2022-09-04T00:04:26.705Z,17.62
2022-09-04T00:04:36.874Z,17.63
2022-09-04T00:04:46.920Z,17.63
2022-09-04T00:04:56.933Z,17.63
2022-09-04T00:05:07.064Z,17.63
2022-09-04T00:05:19.962Z,17.62
2022-09-04T00:05:27.027Z,17.60
2022-09-04T00:05:37.076Z,17.62
2022-09-04T00:05:47.114Z,17.62
2022-09-04T00:05:57.147Z,17.62
2022-09-04T00:06:07.208Z,17.60
2022-09-04T00:06:17.246Z,17.60
2022-09-04T00:06:27.298Z,17.62
2022-09-04T00:06:37.337Z,17.60
2022-09-04T00:06:47.367Z,17.58
2022-09-04T00:06:57.407Z,17.60
2022-09-04T00:07:07.457Z,17.58
2022-09-04T00:07:17.487Z,17.58
2022-09-04T00:07:27.537Z,17.58
2022-09-04T00:07:37.576Z,17.60
2022-09-04T00:07:47.617Z,17.58
2022-09-04T00:07:57.658Z,17.58
2022-09-04T00:08:07.720Z,17.58
2022-09-04T00:08:17.800Z,17.58
2022-09-04T00:08:27.836Z,17.57
2022-09-04T00:08:37.887Z,17.58
2022-09-04T00:08:47.937Z,17.57
2022-09-04T00:08:57.987Z,17.57
2022-09-04T00:09:08.037Z,17.57
2022-09-04T00:09:18.075Z,17.57
2022-09-04T00:09:28.106Z,17.57
2022-09-04T00:09:38.168Z,17.55
2022-09-04T00:09:48.198Z,17.57
2022-09-04T00:09:58.227Z,17.55
2022-09-04T00:10:08.275Z,17.55
2022-09-04T00:10:18.297Z,17.54
2022-09-04T00:10:28.337Z,17.55
2022-09-04T00:10:38.366Z,17.57
2022-09-04T00:10:48.416Z,17.55
2022-09-04T00:10:58.454Z,17.57
2022-09-04T00:11:08.487Z,17.55
2022-09-04T00:11:18.637Z,17.55
2022-09-04T00:11:28.674Z,17.55
2022-09-04T00:11:38.715Z,17.55
2022-09-04T00:11:48.758Z,17.55
2022-09-04T00:11:58.786Z,17.57
2022-09-04T00:12:08.905Z,17.53
2022-09-04T00:12:19.336Z,17.54
2022-09-04T00:12:29.035Z,17.53
2022-09-04T00:12:39.087Z,17.54
2022-09-04T00:12:49.145Z,17.55
2022-09-04T00:12:59.188Z,17.55
2022-09-04T00:13:09.237Z,17.55
2022-09-04T00:13:19.288Z,17.51
2022-09-04T00:13:29.327Z,17.55
2022-09-04T00:13:39.396Z,17.53
2022-09-04T00:13:49.447Z,17.54
2022-09-04T00:13:59.516Z,17.54
2022-09-04T00:14:09.547Z,17.54
2022-09-04T00:14:19.614Z,17.53
2022-09-04T00:14:29.677Z,17.54
2022-09-04T00:14:39.717Z,17.54
2022-09-04T00:14:49.798Z,17.53
2022-09-04T00:14:59.867Z,17.54
2022-09-04T00:15:09.927Z,17.54
2022-09-04T00:15:19.965Z,17.54
2022-09-04T00:15:29.997Z,17.55
2022-09-04T00:15:40.048Z,17.54
2022-09-04T00:15:50.087Z,17.54
2022-09-04T00:16:00.145Z,17.54
2022-09-04T00:16:10.309Z,17.54
2022-09-04T00:16:20.419Z,17.54
2022-09-04T00:16:30.529Z,17.53
2022-09-04T00:16:40.615Z,17.51
2022-09-04T00:16:50.686Z,17.53
2022-09-04T00:17:00.764Z,17.51
2022-09-04T00:17:10.787Z,17.53
2022-09-04T00:17:20.837Z,17.53
2022-09-04T00:17:30.877Z,17.51
2022-09-04T00:17:40.917Z,17.51
2022-09-04T00:17:50.947Z,17.49
2022-09-04T00:18:00.997Z,17.51
2022-09-04T00:18:11.046Z,17.49
2022-09-04T00:18:21.085Z,17.49
2022-09-04T00:18:31.135Z,17.49
2022-09-04T00:18:41.197Z,17.49
2022-09-04T00:18:51.240Z,17.47
2022-09-04T00:19:01.299Z,17.47
2022-09-04T00:19:11.350Z,17.49
2022-09-04T00:19:21.387Z,17.47
2022-09-04T00:19:31.408Z,17.46
2022-09-04T00:19:41.474Z,17.47
2022-09-04T00:19:51.507Z,17.47
2022-09-04T00:20:01.546Z,17.46
2022-09-04T00:20:11.577Z,17.47
2022-09-04T00:20:21.617Z,17.47
2022-09-04T00:20:31.667Z,17.46
2022-09-04T00:20:41.706Z,17.47
2022-09-04T00:20:51.747Z,17.45
2022-09-04T00:21:01.777Z,17.46
2022-09-04T00:21:11.834Z,17.46
2022-09-04T00:21:21.877Z,17.45
2022-09-04T00:21:31.920Z,17.46
2022-09-04T00:21:41.958Z,17.45
2022-09-04T00:21:51.997Z,17.45
2022-09-04T00:22:02.037Z,17.43
2022-09-04T00:22:12.117Z,17.46
2022-09-04T00:22:22.155Z,17.43
2022-09-04T00:22:32.214Z,17.45
2022-09-04T00:22:42.257Z,17.43
2022-09-04T00:22:52.317Z,17.45
2022-09-04T00:23:02.357Z,17.45
2022-09-04T00:23:12.408Z,17.45
2022-09-04T00:23:22.437Z,17.43
2022-09-04T00:23:32.477Z,17.42
2022-09-04T00:23:42.518Z,17.43
2022-09-04T00:23:52.557Z,17.42
2022-09-04T00:24:02.597Z,17.42
2022-09-04T00:24:12.648Z,17.42
2022-09-04T00:24:22.687Z,17.42
2022-09-04T00:24:32.737Z,17.42
2022-09-04T00:24:42.776Z,17.40
2022-09-04T00:24:52.797Z,17.42
2022-09-04T00:25:02.835Z,17.40
2022-09-04T00:25:12.874Z,17.42
2022-09-04T00:25:22.896Z,17.40
2022-09-04T00:25:32.935Z,17.42
2022-09-04T00:25:42.969Z,17.42
2022-09-04T00:25:53.018Z,17.42
2022-09-04T00:26:03.048Z,17.39
2022-09-04T00:26:13.105Z,17.40
2022-09-04T00:26:23.157Z,17.40
2022-09-04T00:26:33.205Z,17.42
2022-09-04T00:26:43.286Z,17.39
2022-09-04T00:26:53.326Z,17.40
2022-09-04T00:27:03.369Z,17.42
2022-09-04T00:27:13.407Z,17.42
2022-09-04T00:27:23.447Z,17.39
2022-09-04T00:27:35.922Z,17.42
2022-09-04T00:27:43.607Z,17.40
2022-09-04T00:27:53.647Z,17.40
2022-09-04T00:28:03.685Z,17.40
2022-09-04T00:28:13.746Z,17.42
2022-09-04T00:28:23.973Z,17.42
2022-09-04T00:28:33.905Z,17.42
2022-09-04T00:28:43.957Z,17.40
2022-09-04T00:28:53.970Z,17.42
2022-09-04T00:29:04.025Z,17.40
2022-09-04T00:29:14.057Z,17.42
2022-09-04T00:29:24.099Z,17.40
2022-09-04T00:29:34.138Z,17.40
2022-09-04T00:29:44.174Z,17.40
2022-09-04T00:29:54.206Z,17.42
2022-09-04T00:30:04.268Z,17.40
2022-09-04T00:30:14.316Z,17.40
2022-09-04T00:30:24.367Z,17.40
2022-09-04T00:30:34.479Z,17.42
2022-09-04T00:30:44.589Z,17.43
2022-09-04T00:30:54.702Z,17.42
2022-09-04T00:31:04.776Z,17.43
2022-09-04T00:31:14.846Z,17.40
2022-09-04T00:31:24.878Z,17.42
2022-09-04T00:31:34.907Z,17.43
2022-09-04T00:31:44.957Z,17.42
2022-09-04T00:31:54.988Z,17.42
2022-09-04T00:32:05.017Z,17.40
2022-09-04T00:32:15.047Z,17.40
2022-09-04T00:32:25.097Z,17.40
2022-09-04T00:32:35.127Z,17.42
2022-09-04T00:32:45.168Z,17.42
2022-09-04T00:32:55.210Z,17.42
2022-09-04T00:33:05.237Z,17.40
2022-09-04T00:33:15.989Z,17.40
2022-09-04T00:33:25.385Z,17.40
2022-09-04T00:33:35.406Z,17.40
2022-09-04T00:33:45.437Z,17.39
2022-09-04T00:33:55.469Z,17.39
2022-09-04T00:34:05.517Z,17.40
2022-09-04T00:34:15.556Z,17.39
2022-09-04T00:34:25.588Z,17.38
2022-09-04T00:34:35.611Z,17.39
2022-09-04T00:34:45.647Z,17.40
2022-09-04T00:34:55.691Z,17.38
2022-09-04T00:35:05.716Z,17.38
2022-09-04T00:35:15.763Z,17.40
2022-09-04T00:35:25.787Z,17.38
2022-09-04T00:35:35.817Z,17.40
2022-09-04T00:35:45.866Z,17.39
2022-09-04T00:35:55.907Z,17.38
2022-09-04T00:36:05.945Z,17.38
2022-09-04T00:36:15.977Z,17.39
2022-09-04T00:36:26.015Z,17.38
2022-09-04T00:36:36.057Z,17.39
2022-09-04T00:36:50.145Z,17.39
2022-09-04T00:36:56.205Z,17.36
2022-09-04T00:37:06.257Z,17.36
2022-09-04T00:37:16.307Z,17.38
2022-09-04T00:37:26.353Z,17.36
2022-09-04T00:37:36.378Z,17.35
2022-09-04T00:37:46.428Z,17.38
2022-09-04T00:37:56.466Z,17.36
2022-09-04T00:38:06.486Z,17.35
2022-09-04T00:38:16.537Z,17.35
2022-09-04T00:38:26.591Z,17.35
2022-09-04T00:38:36.625Z,17.36
2022-09-04T00:38:46.676Z,17.35
2022-09-04T00:38:56.697Z,17.35
2022-09-04T00:39:06.747Z,17.33
2022-09-04T00:39:17.713Z,17.30
2022-09-04T00:39:27.774Z,17.33
2022-09-04T00:39:37.846Z,17.33
2022-09-04T00:39:47.935Z,17.32
2022-09-04T00:39:58.013Z,17.32
2022-09-04T00:40:08.074Z,17.32
2022-09-04T00:40:18.148Z,17.32
2022-09-04T00:40:31.282Z,17.32
2022-09-04T00:40:38.267Z,17.30
2022-09-04T00:40:48.308Z,17.32
2022-09-04T00:40:58.366Z,17.35
2022-09-04T00:41:08.407Z,17.32
2022-09-04T00:41:18.458Z,17.32
2022-09-04T00:41:28.505Z,17.30
2022-09-04T00:41:38.557Z,17.32
2022-09-04T00:41:48.586Z,17.28
2022-09-04T00:41:58.627Z,17.30
2022-09-04T00:42:08.660Z,17.28
2022-09-04T00:42:18.709Z,17.28
2022-09-04T00:42:28.746Z,17.27
2022-09-04T00:42:38.786Z,17.28
2022-09-04T00:42:48.827Z,17.28
2022-09-04T00:42:58.957Z,17.30
2022-09-04T00:43:09.006Z,17.28
2022-09-04T00:43:19.059Z,17.27
2022-09-04T00:43:29.088Z,17.27
2022-09-04T00:43:39.126Z,17.28
2022-09-04T00:43:49.178Z,17.27
2022-09-04T00:43:59.234Z,17.27
2022-09-04T00:44:09.287Z,17.27
2022-09-04T00:44:19.328Z,17.25
2022-09-04T00:44:29.426Z,17.28
2022-09-04T00:44:39.463Z,17.28
2022-09-04T00:44:49.519Z,17.28
2022-09-04T00:44:59.676Z,17.27
2022-09-04T00:45:09.827Z,17.28
2022-09-04T00:45:20.677Z,17.27
2022-09-04T00:45:30.773Z,17.25
2022-09-04T00:45:40.874Z,17.30
2022-09-04T00:45:50.971Z,17.24
2022-09-04T00:46:01.068Z,17.27
2022-09-04T00:46:11.102Z,17.25
2022-09-04T00:46:21.216Z,17.27
2022-09-04T00:46:31.254Z,17.25
2022-09-04T00:46:41.303Z,17.27
2022-09-04T00:46:51.325Z,17.24
2022-09-04T00:47:01.364Z,17.27
2022-09-04T00:47:11.396Z,17.22
2022-09-04T00:47:21.446Z,17.25
2022-09-04T00:47:31.489Z,17.25
2022-09-04T00:47:41.535Z,17.24
2022-09-04T00:47:51.575Z,17.22
2022-09-04T00:48:01.606Z,17.24
2022-09-04T00:48:11.648Z,17.22
2022-09-04T00:48:21.687Z,17.24
2022-09-04T00:48:31.706Z,17.22
2022-09-04T00:48:41.750Z,17.21
2022-09-04T00:48:51.795Z,17.21
2022-09-04T00:49:01.827Z,17.21
2022-09-04T00:49:11.868Z,17.21
2022-09-04T00:49:21.907Z,17.21
2022-09-04T00:49:31.937Z,17.21
2022-09-04T00:49:41.964Z,17.21
2022-09-04T00:49:51.977Z,17.21
2022-09-04T00:50:02.021Z,17.20
2022-09-04T00:50:12.083Z,17.20
2022-09-04T00:50:22.106Z,17.20
2022-09-04T00:50:32.128Z,17.20
2022-09-04T00:50:42.167Z,17.20
2022-09-04T00:50:52.194Z,17.20
2022-09-04T00:51:02.246Z,17.21
2022-09-04T00:51:12.297Z,17.18
2022-09-04T00:51:22.327Z,17.18
2022-09-04T00:51:32.367Z,17.15
2022-09-04T00:51:42.405Z,17.18
2022-09-04T00:51:52.445Z,17.17
2022-09-04T00:52:02.468Z,17.15
2022-09-04T00:52:12.519Z,17.17
2022-09-04T00:52:29.560Z,17.17
2022-09-04T00:52:36.607Z,17.12
2022-09-04T00:52:44.562Z,17.14
2022-09-04T00:52:57.438Z,17.15
2022-09-04T00:53:06.029Z,17.15
2022-09-04T00:53:13.845Z,17.17
2022-09-04T00:53:23.915Z,17.15
2022-09-04T00:53:33.956Z,17.15
2022-09-04T00:53:44.036Z,17.17
2022-09-04T00:53:54.064Z,17.14
2022-09-04T00:54:04.105Z,17.17
2022-09-04T00:54:14.127Z,17.15
2022-09-04T00:54:24.177Z,17.15
2022-09-04T00:54:34.217Z,17.12
2022-09-04T00:54:44.265Z,17.14
2022-09-04T00:54:54.295Z,17.14
2022-09-04T00:55:04.339Z,17.14
2022-09-04T00:55:14.377Z,17.14
2022-09-04T00:55:24.437Z,17.12
2022-09-04T00:55:34.475Z,17.12
2022-09-04T00:55:44.507Z,17.14
2022-09-04T00:55:54.617Z,17.12
2022-09-04T00:56:04.657Z,17.12
2022-09-04T00:56:14.705Z,17.12
2022-09-04T00:56:24.737Z,17.14
2022-09-04T00:56:34.787Z,17.12
2022-09-04T00:56:44.827Z,17.17
2022-09-04T00:56:54.868Z,17.14
2022-09-04T00:57:04.897Z,17.14
2022-09-04T00:57:14.953Z,17.15
2022-09-04T00:57:24.998Z,17.12
2022-09-04T00:57:35.054Z,17.12
2022-09-04T00:57:45.149Z,17.14
2022-09-04T00:57:55.114Z,17.12
2022-09-04T00:58:05.145Z,17.14
2022-09-04T00:58:15.197Z,17.12
2022-09-04T00:58:25.372Z,17.12
2022-09-04T00:58:35.298Z,17.12
2022-09-04T00:58:45.308Z,17.14
2022-09-04T00:58:55.347Z,17.14
2022-09-04T00:59:05.394Z,17.12
2022-09-04T00:59:15.428Z,17.14
2022-09-04T00:59:25.457Z,17.12
2022-09-04T00:59:35.487Z,17.15
2022-09-04T00:59:45.541Z,17.14
2022-09-04T00:59:55.590Z,17.12
2022-09-04T01:00:05.607Z,17.15
2022-09-04T01:00:15.646Z,17.12
2022-09-04T01:00:25.681Z,17.10
2022-09-04T01:00:35.717Z,17.15
2022-09-04T01:00:45.828Z,17.12
2022-09-04T01:00:56.065Z,17.14
2022-09-04T01:01:06.057Z,17.14
2022-09-04T01:01:16.038Z,17.14
2022-09-04T01:01:26.115Z,17.10
2022-09-04T01:01:36.790Z,17.12
2022-09-04T01:01:46.148Z,17.14
2022-09-04T01:01:56.325Z,17.14
2022-09-04T01:02:06.417Z,17.14
2022-09-04T01:02:16.553Z,17.14
2022-09-04T01:02:26.558Z,17.14
2022-09-04T01:02:36.646Z,17.12
2022-09-04T01:02:46.737Z,17.14
2022-09-04T01:02:56.798Z,17.12
2022-09-04T01:03:06.846Z,17.12
2022-09-04T01:03:16.878Z,17.12
2022-09-04T01:03:27.561Z,17.12
2022-09-04T01:03:36.997Z,17.10
2022-09-04T01:03:47.046Z,17.12
2022-09-04T01:03:57.542Z,17.10
2022-09-04T01:04:07.177Z,17.12
2022-09-04T01:04:17.315Z,17.10
2022-09-04T01:04:27.397Z,17.10
2022-09-04T01:04:37.427Z,17.10
2022-09-04T01:04:47.485Z,17.10
2022-09-04T01:04:57.534Z,17.15
2022-09-04T01:05:07.557Z,17.12
2022-09-04T01:05:19.869Z,17.12
2022-09-04T01:05:27.827Z,17.14
2022-09-04T01:05:37.866Z,17.14
2022-09-04T01:05:47.956Z,17.15
2022-09-04T01:05:58.086Z,17.12
2022-09-04T01:06:08.119Z,17.12
2022-09-04T01:06:18.176Z,17.17
2022-09-04T01:06:28.327Z,17.14
2022-09-04T01:06:38.437Z,17.12
2022-09-04T01:06:48.488Z,17.15
2022-09-04T01:06:58.518Z,17.14
2022-09-04T01:07:08.575Z,17.09
2022-09-04T01:07:18.618Z,17.12
2022-09-04T01:07:28.657Z,17.12
2022-09-04T01:07:38.717Z,17.12
2022-09-04T01:07:48.757Z,17.12
2022-09-04T01:07:58.818Z,17.10
2022-09-04T01:08:11.315Z,17.12
2022-09-04T01:08:19.088Z,17.10
2022-09-04T01:08:29.167Z,17.10
2022-09-04T01:08:39.207Z,17.10
2022-09-04T01:08:49.247Z,17.12
2022-09-04T01:09:00.215Z,17.12
2022-09-04T01:09:10.276Z,17.14
2022-09-04T01:09:20.328Z,17.14
2022-09-04T01:09:30.385Z,17.12
2022-09-04T01:09:40.427Z,17.12
2022-09-04T01:09:50.484Z,17.09
2022-09-04T01:10:00.537Z,17.10
2022-09-04T01:10:10.587Z,17.10
2022-09-04T01:10:20.596Z,17.10
2022-09-04T01:10:30.678Z,17.12
2022-09-04T01:10:40.727Z,17.10
2022-09-04T01:10:50.777Z,17.10
2022-09-04T01:11:00.817Z,17.10
2022-09-04T01:11:10.865Z,17.10
2022-09-04T01:11:20.916Z,17.10
2022-09-04T01:11:30.956Z,17.10
2022-09-04T01:11:40.987Z,17.12
2022-09-04T01:11:51.059Z,17.09
2022-09-04T01:12:01.097Z,17.10
2022-09-04T01:12:11.147Z,17.10
2022-09-04T01:12:21.197Z,17.09
2022-09-04T01:12:31.227Z,17.12
2022-09-04T01:12:41.277Z,17.09
2022-09-04T01:12:51.329Z,17.09
2022-09-04T01:13:01.356Z,17.12
2022-09-04T01:13:11.417Z,17.10
2022-09-04T01:13:21.475Z,17.12
2022-09-04T01:13:31.538Z,17.12
2022-09-04T01:13:41.587Z,17.10
2022-09-04T01:13:51.783Z,17.10
2022-09-04T01:14:01.715Z,17.10
2022-09-04T01:14:11.747Z,17.10
2022-09-04T01:14:21.848Z,17.10
2022-09-04T01:14:31.907Z,17.07
2022-09-04T01:14:41.938Z,17.09
2022-09-04T01:14:53.128Z,17.07
2022-09-04T01:15:02.129Z,17.09
2022-09-04T01:15:12.175Z,17.10
2022-09-04T01:15:22.215Z,17.09
2022-09-04T01:15:32.267Z,17.07
2022-09-04T01:15:42.317Z,17.07
2022-09-04T01:15:52.377Z,17.09
2022-09-04T01:16:02.462Z,17.07
2022-09-04T01:16:12.623Z,17.07
2022-09-04T01:16:22.683Z,17.07
2022-09-04T01:16:32.763Z,17.06
2022-09-04T01:16:42.839Z,17.09
2022-09-04T01:16:52.942Z,17.06
2022-09-04T01:17:02.948Z,17.07
2022-09-04T01:17:12.997Z,17.09
2022-09-04T01:17:23.127Z,17.06
2022-09-04T01:17:33.176Z,17.09
2022-09-04T01:17:43.228Z,17.07
2022-09-04T01:17:53.267Z,17.06
2022-09-04T01:18:03.305Z,17.07
2022-09-04T01:18:13.347Z,17.07
2022-09-04T01:18:23.435Z,17.09
2022-09-04T01:18:33.476Z,17.06
2022-09-04T01:18:43.528Z,17.07
2022-09-04T01:18:53.566Z,17.09
2022-09-04T01:19:03.609Z,17.05
2022-09-04T01:19:13.647Z,17.09
2022-09-04T01:19:23.698Z,17.07
2022-09-04T01:19:33.748Z,17.07
2022-09-04T01:19:43.816Z,17.07
2022-09-04T01:19:53.847Z,17.09
2022-09-04T01:20:03.937Z,17.09
2022-09-04T01:20:13.947Z,17.09
2022-09-04T01:20:23.999Z,17.07
2022-09-04T01:20:34.027Z,17.09
2022-09-04T01:20:44.067Z,17.05
2022-09-04T01:20:54.127Z,17.07
2022-09-04T01:21:04.177Z,17.06
2022-09-04T01:21:14.216Z,17.06
2022-09-04T01:21:24.258Z,17.06
2022-09-04T01:21:34.307Z,17.05
2022-09-04T01:21:44.356Z,17.06
2022-09-04T01:21:54.388Z,17.06
2022-09-04T01:22:04.427Z,17.09
2022-09-04T01:22:14.467Z,17.06
2022-09-04T01:22:24.515Z,17.09
2022-09-04T01:22:34.555Z,17.06
2022-09-04T01:22:44.596Z,17.07
2022-09-04T01:22:54.627Z,17.05
2022-09-04T01:23:04.685Z,17.06
2022-09-04T01:23:14.728Z,17.05
2022-09-04T01:23:24.767Z,17.07
2022-09-04T01:23:34.829Z,17.06
2022-09-04T01:23:44.867Z,17.06
2022-09-04T01:23:54.898Z,17.05
2022-09-04T01:24:04.947Z,17.03
2022-09-04T01:24:14.988Z,17.07
2022-09-04T01:24:25.098Z,17.05
2022-09-04T01:24:35.138Z,17.05
2022-09-04T01:24:45.178Z,17.06
2022-09-04T01:24:55.226Z,17.05
2022-09-04T01:25:05.274Z,17.07
2022-09-04T01:25:15.307Z,17.05
2022-09-04T01:25:25.347Z,17.06
2022-09-04T01:25:35.376Z,17.03
2022-09-04T01:25:45.408Z,17.05
2022-09-04T01:26:32.690Z,17.03
2022-09-04T01:26:42.729Z,17.06
2022-09-04T01:26:52.759Z,17.06
2022-09-04T01:27:02.790Z,17.06
2022-09-04T01:27:12.809Z,17.05
2022-09-04T01:27:22.841Z,17.03
2022-09-04T01:27:32.863Z,17.06
2022-09-04T01:27:42.892Z,17.05
2022-09-04T01:27:52.920Z,17.05
2022-09-04T01:28:02.960Z,17.03
2022-09-04T01:28:12.998Z,17.05
2022-09-04T01:28:23.151Z,17.06
2022-09-04T01:28:33.192Z,17.05
2022-09-04T01:28:43.301Z,17.05
2022-09-04T01:28:53.360Z,17.05
2022-09-04T01:29:03.400Z,17.02
2022-09-04T01:29:13.410Z,17.05
2022-09-04T01:29:23.450Z,17.06
2022-09-04T01:29:33.500Z,17.06
2022-09-04T01:29:43.531Z,17.05
2022-09-04T01:29:53.570Z,17.05
2022-09-04T01:30:03.600Z,17.03
2022-09-04T01:30:13.653Z,17.05
2022-09-04T01:30:23.705Z,17.03
2022-09-04T01:30:33.730Z,17.05
2022-09-04T01:30:43.780Z,17.05
2022-09-04T01:30:53.820Z,17.05
2022-09-04T01:31:03.870Z,17.02
2022-09-04T01:31:13.989Z,17.03
2022-09-04T01:31:24.061Z,17.05
2022-09-04T01:31:34.136Z,17.03
2022-09-04T01:31:44.242Z,17.03
2022-09-04T01:31:54.334Z,17.05
2022-09-04T01:32:04.444Z,17.02
2022-09-04T01:32:14.498Z,17.02
2022-09-04T01:32:24.640Z,17.03
2022-09-04T01:32:34.671Z,17.00
2022-09-04T01:32:44.710Z,17.03
2022-09-04T01:32:54.750Z,17.00
2022-09-04T01:33:04.783Z,17.02
2022-09-04T01:33:14.821Z,17.00
2022-09-04T01:33:24.871Z,17.03
2022-09-04T01:33:34.910Z,17.03
2022-09-04T01:33:44.963Z,17.00
2022-09-04T01:33:55.099Z,17.02
2022-09-04T01:34:05.178Z,17.02
2022-09-04T01:34:15.220Z,16.99
2022-09-04T01:34:25.251Z,17.03
2022-09-04T01:34:35.310Z,17.02
2022-09-04T01:34:45.387Z,17.02
2022-09-04T01:34:55.420Z,17.02
2022-09-04T01:35:05.468Z,17.00
2022-09-04T01:35:15.509Z,17.02
2022-09-04T01:35:25.541Z,17.00
2022-09-04T01:35:35.570Z,17.02
2022-09-04T01:35:45.610Z,17.00
2022-09-04T01:35:55.649Z,17.02
2022-09-04T01:36:05.682Z,17.00
2022-09-04T01:36:15.721Z,17.00
2022-09-04T01:36:25.742Z,17.00
2022-09-04T01:36:35.770Z,16.99
2022-09-04T01:36:45.792Z,17.00
2022-09-04T01:36:55.830Z,17.00
2022-09-04T01:37:05.860Z,16.99
2022-09-04T01:37:15.900Z,16.99
2022-09-04T01:37:25.940Z,16.99
2022-09-04T01:37:35.978Z,17.00
2022-09-04T01:37:46.039Z,16.99
2022-09-04T01:37:56.079Z,16.99
2022-09-04T01:38:06.111Z,16.99
2022-09-04T01:38:16.150Z,16.99
2022-09-04T01:38:26.324Z,16.99
2022-09-04T01:38:36.221Z,16.98
2022-09-04T01:38:46.281Z,17.02
2022-09-04T01:38:56.349Z,16.99
2022-09-04T01:39:06.370Z,16.99
2022-09-04T01:39:16.420Z,16.99
2022-09-04T01:39:26.546Z,17.00
2022-09-04T01:39:36.621Z,16.99
2022-09-04T01:39:46.684Z,16.99
2022-09-04T01:39:56.789Z,16.99
2022-09-04T01:40:06.887Z,17.00
2022-09-04T01:40:16.958Z,16.99
2022-09-04T01:40:35.180Z,17.00
2022-09-04T01:40:37.950Z,16.98
2022-09-04T01:40:47.982Z,16.99
2022-09-04T01:40:58.022Z,17.00
2022-09-04T01:41:08.049Z,17.00
2022-09-04T01:41:18.080Z,16.98
2022-09-04T01:41:28.120Z,16.98
2022-09-04T01:41:38.714Z,17.00
2022-09-04T01:41:48.320Z,16.96
2022-09-04T01:41:58.359Z,16.98
2022-09-04T01:42:08.401Z,16.96
2022-09-04T01:42:18.444Z,16.96
2022-09-04T01:42:28.480Z,16.98
2022-09-04T01:42:38.510Z,16.98
2022-09-04T01:42:48.552Z,16.96
2022-09-04T01:42:58.594Z,16.98
2022-09-04T01:43:08.684Z,16.99
2022-09-04T01:43:18.749Z,16.95
2022-09-04T01:43:28.800Z,16.96
2022-09-04T01:43:38.830Z,16.99
2022-09-04T01:43:48.912Z,16.98
2022-09-04T01:43:58.951Z,16.98
2022-09-04T01:44:08.988Z,16.96
2022-09-04T01:44:19.020Z,16.96
2022-09-04T01:44:29.069Z,16.95
2022-09-04T01:44:39.110Z,16.92
2022-09-04T01:44:49.148Z,16.95
2022-09-04T01:44:59.181Z,16.98
2022-09-04T01:45:09.229Z,16.95
2022-09-04T01:45:19.277Z,16.98
2022-09-04T01:45:29.332Z,16.92
2022-09-04T01:45:39.430Z,16.91
2022-09-04T01:45:49.536Z,16.92
2022-09-04T01:45:59.741Z,16.92
2022-09-04T01:46:09.728Z,16.91
2022-09-04T01:46:19.770Z,16.92
2022-09-04T01:46:29.821Z,16.91
2022-09-04T01:46:39.869Z,16.90
2022-09-04T01:46:49.913Z,16.92
2022-09-04T01:46:59.947Z,16.88
2022-09-04T01:47:09.998Z,16.91
2022-09-04T01:47:20.030Z,16.90
2022-09-04T01:47:30.060Z,16.91
2022-09-04T01:47:40.099Z,16.88
2022-09-04T01:47:50.148Z,16.90
2022-09-04T01:48:00.171Z,16.91
2022-09-04T01:48:10.201Z,16.88
2022-09-04T01:48:20.328Z,16.88
2022-09-04T01:48:30.341Z,16.90
2022-09-04T01:48:40.392Z,16.88
2022-09-04T01:48:50.558Z,16.90
2022-09-04T01:49:00.580Z,16.90
2022-09-04T01:49:10.632Z,16.90
2022-09-04T01:49:20.685Z,16.91
2022-09-04T01:49:30.739Z,16.88
2022-09-04T01:49:40.781Z,16.87
2022-09-04T01:49:50.819Z,16.90
2022-09-04T01:50:00.863Z,16.90
2022-09-04T01:50:10.891Z,16.85
2022-09-04T01:50:20.939Z,16.88
2022-09-04T01:50:30.988Z,16.88
2022-09-04T01:50:41.019Z,16.90
2022-09-04T01:50:51.098Z,16.90
2022-09-04T01:51:01.151Z,16.87
2022-09-04T01:51:11.211Z,16.88
2022-09-04T01:51:21.250Z,16.88
2022-09-04T01:51:31.282Z,16.90
2022-09-04T01:51:41.323Z,16.88
2022-09-04T01:51:51.371Z,16.90
2022-09-04T01:52:01.425Z,16.90
2022-09-04T01:52:11.471Z,16.90
2022-09-04T01:52:21.511Z,16.88
2022-09-04T01:52:31.542Z,16.88
2022-09-04T01:52:41.603Z,16.88
2022-09-04T01:52:51.662Z,16.88
2022-09-04T01:53:01.711Z,16.87
2022-09-04T01:53:11.751Z,16.88
2022-09-04T01:53:21.792Z,16.87
2022-09-04T01:53:32.834Z,16.87
2022-09-04T01:53:41.950Z,16.88
2022-09-04T01:53:52.026Z,16.91
2022-09-04T01:54:02.065Z,16.87
2022-09-04T01:54:12.100Z,16.88
2022-09-04T01:54:22.129Z,16.87
2022-09-04T01:54:32.192Z,16.88
2022-09-04T01:54:42.232Z,16.85
2022-09-04T01:54:52.268Z,16.84
2022-09-04T01:55:02.300Z,16.84
2022-09-04T01:55:12.331Z,16.87
2022-09-04T01:55:22.371Z,16.87
2022-09-04T01:55:32.412Z,16.87
2022-09-04T01:55:42.430Z,16.85
2022-09-04T01:55:52.473Z,16.85
2022-09-04T01:56:02.500Z,16.87
2022-09-04T01:56:12.521Z,16.85
2022-09-04T01:56:22.593Z,16.85
2022-09-04T01:56:32.631Z,16.87
2022-09-04T01:56:42.669Z,16.84
2022-09-04T01:56:52.741Z,16.85
2022-09-04T01:57:02.780Z,16.85
2022-09-04T01:57:12.822Z,16.88
2022-09-04T01:57:22.871Z,16.85
2022-09-04T01:57:32.913Z,16.84
2022-09-04T01:57:42.949Z,16.82
2022-09-04T01:57:53.000Z,16.84
2022-09-04T01:58:03.658Z,16.84
2022-09-04T01:58:13.169Z,16.85
2022-09-04T01:58:23.213Z,16.84
2022-09-04T01:58:33.240Z,16.81
2022-09-04T01:58:43.340Z,16.82
2022-09-04T01:58:53.401Z,16.85
2022-09-04T01:59:03.440Z,16.82
2022-09-04T01:59:13.484Z,16.87
2022-09-04T01:59:23.489Z,16.85
2022-09-04T01:59:33.526Z,16.85
2022-09-04T01:59:43.563Z,16.85
2022-09-04T01:59:53.929Z,16.85
2022-09-04T02:00:03.630Z,16.85
2022-09-04T02:00:13.687Z,16.84
2022-09-04T02:00:24.989Z,16.85
2022-09-04T02:00:33.781Z,16.82
2022-09-04T02:00:43.858Z,16.81
2022-09-04T02:00:53.871Z,16.82
2022-09-04T02:01:04.036Z,16.82
2022-09-04T02:01:14.161Z,16.81
2022-09-04T02:01:25.092Z,16.80
2022-09-04T02:01:35.217Z,16.81
2022-09-04T02:01:45.309Z,16.81
2022-09-04T02:01:55.431Z,16.82
2022-09-04T02:02:05.517Z,16.81
2022-09-04T02:02:15.620Z,16.82
2022-09-04T02:02:25.760Z,16.80
2022-09-04T02:02:35.730Z,16.82
2022-09-04T02:02:45.812Z,16.82
2022-09-04T02:02:55.890Z,16.81
2022-09-04T02:03:05.929Z,16.81
2022-09-04T02:03:15.961Z,16.81
2022-09-04T02:03:26.001Z,16.80
2022-09-04T02:03:36.050Z,16.81
2022-09-04T02:03:46.100Z,16.82
2022-09-04T02:03:56.162Z,16.81
2022-09-04T02:04:06.200Z,16.82
2022-09-04T02:04:16.220Z,16.78
2022-09-04T02:04:26.289Z,16.81
2022-09-04T02:04:36.320Z,16.77
2022-09-04T02:04:46.358Z,16.82
2022-09-04T02:04:56.397Z,16.80
2022-09-04T02:05:08.461Z,16.82
2022-09-04T02:05:16.548Z,16.81
2022-09-04T02:05:26.581Z,16.80
2022-09-04T02:05:36.607Z,16.80
2022-09-04T02:05:46.651Z,16.80
2022-09-04T02:05:56.689Z,16.81
2022-09-04T02:06:06.730Z,16.81
2022-09-04T02:06:16.780Z,16.80
2022-09-04T02:06:26.832Z,16.80
2022-09-04T02:06:36.873Z,16.78
2022-09-04T02:06:46.929Z,16.81
2022-09-04T02:06:56.950Z,16.80
2022-09-04T02:07:07.000Z,16.81
2022-09-04T02:07:17.039Z,16.78
2022-09-04T02:07:27.090Z,16.80
2022-09-04T02:07:37.160Z,16.78
2022-09-04T02:07:47.188Z,16.81
2022-09-04T02:07:57.220Z,16.81
2022-09-04T02:08:07.267Z,16.80
2022-09-04T02:08:17.330Z,16.78
2022-09-04T02:08:27.380Z,16.81
2022-09-04T02:08:37.421Z,16.77
2022-09-04T02:08:47.460Z,16.78
2022-09-04T02:08:57.520Z,16.78
2022-09-04T02:09:07.562Z,16.82
2022-09-04T02:09:17.600Z,16.77
2022-09-04T02:09:27.639Z,16.77
2022-09-04T02:09:37.692Z,16.78
2022-09-04T02:09:47.730Z,16.77
2022-09-04T02:09:57.793Z,16.77
2022-09-04T02:10:07.823Z,16.78